createdAt,value
2019-06-27T00:01:39.925Z,97710.39
2019-06-27T00:04:07.482Z,97712.80
2019-06-27T00:06:34.910Z,97709.98
2019-06-27T00:09:02.518Z,97718.42
2019-06-27T00:11:30.006Z,97707.25
2019-06-27T00:13:57.896Z,97713.14
2019-06-27T00:16:25.508Z,97710.51
2019-06-27T00:18:53.096Z,97713.47
2019-06-27T00:21:20.546Z,97716.02
2019-06-27T00:23:48.170Z,97716.61
2019-06-27T00:26:15.599Z,97716.25
2019-06-27T00:28:43.022Z,97716.96
2019-06-27T00:31:10.430Z,97711.10
2019-06-27T00:33:37.846Z,97717.53
2019-06-27T00:36:05.340Z,97710.21
2019-06-27T00:38:32.864Z,97705.96
2019-06-27T00:41:00.303Z,97709.16
2019-06-27T00:43:27.746Z,97711.05
2019-06-27T00:45:55.142Z,97708.17
2019-06-27T00:48:22.621Z,97710.87
2019-06-27T00:50:50.319Z,97708.62
2019-06-27T00:53:18.086Z,97713.45
2019-06-27T00:55:45.581Z,97707.15
2019-06-27T00:58:13.739Z,97710.55
2019-06-27T01:00:41.169Z,97702.02
2019-06-27T01:03:08.619Z,97708.17
2019-06-27T01:05:36.362Z,97701.09
2019-06-27T01:08:03.870Z,97700.50
2019-06-27T01:10:31.300Z,97706.24
2019-06-27T01:12:58.729Z,97702.70
2019-06-27T01:15:26.183Z,97708.27
2019-06-27T01:17:53.616Z,97703.99
2019-06-27T01:20:21.076Z,97700.23
2019-06-27T01:22:48.884Z,97701.11
2019-06-27T01:25:16.330Z,97707.98
2019-06-27T01:27:43.776Z,97713.02
2019-06-27T01:30:11.189Z,97708.69
2019-06-27T01:32:38.863Z,97702.81
2019-06-27T01:35:06.294Z,97703.56
2019-06-27T01:37:33.765Z,97708.36
2019-06-27T01:40:01.204Z,97705.54
2019-06-27T01:42:28.667Z,97706.56
2019-06-27T01:44:56.878Z,97708.77
2019-06-27T01:47:25.140Z,97707.02
2019-06-27T01:49:52.570Z,97708.20
2019-06-27T01:52:20.023Z,97707.48
2019-06-27T01:54:47.446Z,97708.27
2019-06-27T01:57:15.188Z,97708.38
2019-06-27T01:59:42.711Z,97703.95
2019-06-27T02:02:10.175Z,97703.99
2019-06-27T02:04:38.016Z,97708.17
2019-06-27T02:07:05.700Z,97710.73
2019-06-27T02:09:33.628Z,97708.02
2019-06-27T02:12:00.736Z,97717.41
2019-06-27T02:14:28.184Z,97715.30
2019-06-27T02:16:55.885Z,97718.39
2019-06-27T02:19:23.922Z,97719.98
2019-06-27T02:21:51.374Z,97723.11
2019-06-27T02:24:19.416Z,97721.52
2019-06-27T02:26:47.123Z,97718.86
2019-06-27T02:29:14.555Z,97730.25
2019-06-27T02:31:42.032Z,97725.47
2019-06-27T02:34:09.504Z,97726.16
2019-06-27T02:36:37.167Z,97724.97
2019-06-27T02:39:04.590Z,97715.34
2019-06-27T02:41:32.295Z,97722.05
2019-06-27T02:43:59.730Z,97716.33
2019-06-27T02:46:27.420Z,97718.45
2019-06-27T02:48:54.856Z,97714.75
2019-06-27T02:51:22.319Z,97719.19
2019-06-27T02:53:49.756Z,97719.67
2019-06-27T02:56:17.405Z,97721.68
2019-06-27T02:58:45.560Z,97727.30
2019-06-27T03:01:12.981Z,97722.28
2019-06-27T03:03:41.735Z,97726.78
2019-06-27T03:06:09.211Z,97723.44
2019-06-27T03:08:36.668Z,97724.96
2019-06-27T03:11:04.849Z,97724.86
2019-06-27T03:13:32.289Z,97724.61
2019-06-27T03:16:00.035Z,97722.86
2019-06-27T03:18:27.615Z,97721.67
2019-06-27T03:20:55.072Z,97719.44
2019-06-27T03:23:22.500Z,97721.09
2019-06-27T03:25:50.359Z,97724.38
2019-06-27T03:28:17.847Z,97716.34
2019-06-27T03:30:45.533Z,97722.53
2019-06-27T03:33:12.964Z,97717.67
2019-06-27T03:35:40.446Z,97719.03
2019-06-27T03:38:07.816Z,97724.80
2019-06-27T03:40:35.306Z,97722.22
2019-06-27T03:43:02.759Z,97725.13
2019-06-27T03:45:30.675Z,97725.13
2019-06-27T03:47:58.320Z,97723.47
2019-06-27T03:50:25.997Z,97727.17
2019-06-27T03:52:53.423Z,97732.11
2019-06-27T03:55:20.953Z,97730.25
2019-06-27T03:57:48.373Z,97740.41
2019-06-27T04:00:20.493Z,97732.69
2019-06-27T04:02:47.923Z,97739.06
2019-06-27T04:09:50.573Z,97732.19
2019-06-27T04:12:18.022Z,97732.00
2019-06-27T04:14:45.468Z,97741.31
2019-06-27T04:17:12.918Z,97735.03
2019-06-27T04:19:40.376Z,97740.55
2019-06-27T04:22:08.295Z,97740.38
2019-06-27T04:24:35.715Z,97743.07
2019-06-27T04:27:03.317Z,97747.34
2019-06-27T04:29:33.903Z,97750.09
2019-06-27T04:31:58.243Z,97744.73
2019-06-27T04:34:25.673Z,97752.42
2019-06-27T04:36:53.798Z,97751.34
2019-06-27T04:39:21.865Z,97757.03
2019-06-27T04:41:50.249Z,97751.59
2019-06-27T04:44:17.694Z,97754.02
2019-06-27T04:46:45.421Z,97758.14
2019-06-27T04:49:13.743Z,97754.34
2019-06-27T04:51:40.347Z,97761.04
2019-06-27T04:54:07.853Z,97759.50
2019-06-27T04:56:35.338Z,97756.61
2019-06-27T04:59:02.812Z,97760.18
2019-06-27T05:01:30.589Z,97758.41
2019-06-27T05:03:58.138Z,97753.61
2019-06-27T05:06:26.520Z,97764.02
2019-06-27T05:08:53.932Z,97757.20
2019-06-27T05:11:22.058Z,97757.45
2019-06-27T05:13:49.479Z,97757.77
2019-06-27T05:16:17.070Z,97761.63
2019-06-27T05:18:44.516Z,97762.55
2019-06-27T05:21:12.284Z,97756.55
2019-06-27T05:23:39.927Z,97764.22
2019-06-27T05:26:07.547Z,97767.09
2019-06-27T05:28:35.083Z,97762.22
2019-06-27T05:31:02.550Z,97765.97
2019-06-27T05:33:29.998Z,97762.14
2019-06-27T05:35:57.916Z,97765.84
2019-06-27T05:38:25.442Z,97757.92
2019-06-27T05:40:52.930Z,97763.73
2019-06-27T05:43:20.326Z,97766.73
2019-06-27T05:45:48.174Z,97766.84
2019-06-27T05:48:15.592Z,97769.34
2019-06-27T05:50:43.098Z,97770.45
2019-06-27T05:53:10.578Z,97771.11
2019-06-27T05:55:38.519Z,97764.98
2019-06-27T05:58:06.010Z,97766.19
2019-06-27T06:00:33.555Z,97767.50
2019-06-27T06:03:01.007Z,97773.55
2019-06-27T06:05:28.553Z,97772.11
2019-06-27T06:07:56.088Z,97776.95
2019-06-27T06:10:24.358Z,97778.79
2019-06-27T06:12:51.777Z,97786.21
2019-06-27T06:15:19.754Z,97784.48
2019-06-27T06:17:46.677Z,97780.93
2019-06-27T06:20:14.367Z,97783.55
2019-06-27T06:22:41.776Z,97781.98
2019-06-27T06:25:09.645Z,97793.67
2019-06-27T06:27:37.102Z,97781.78
2019-06-27T06:30:04.561Z,97787.02
2019-06-27T06:32:32.042Z,97787.30
2019-06-27T06:35:00.237Z,97784.23
2019-06-27T06:37:27.650Z,97785.91
2019-06-27T06:39:55.161Z,97794.41
2019-06-27T06:42:22.604Z,97791.81
2019-06-27T06:44:50.179Z,97786.27
2019-06-27T06:47:17.893Z,97787.17
2019-06-27T06:49:45.482Z,97791.08
2019-06-27T06:52:12.933Z,97792.21
2019-06-27T06:54:40.572Z,97781.55
2019-06-27T06:57:08.006Z,97791.36
2019-06-27T06:59:36.340Z,97787.03
2019-06-27T07:02:03.760Z,97788.38
2019-06-27T07:04:31.545Z,97786.88
2019-06-27T07:06:59.166Z,97786.92
2019-06-27T07:09:26.775Z,97787.86
2019-06-27T07:11:54.353Z,97789.97
2019-06-27T07:14:22.461Z,97793.13
2019-06-27T07:16:49.885Z,97795.19
2019-06-27T07:19:17.627Z,97791.67
2019-06-27T07:21:45.081Z,97784.50
2019-06-27T07:24:12.663Z,97787.84
2019-06-27T07:26:40.227Z,97790.30
2019-06-27T07:29:08.435Z,97787.95
2019-06-27T07:31:35.851Z,97782.64
2019-06-27T07:34:03.337Z,97784.23
2019-06-27T07:36:30.776Z,97797.83
2019-06-27T07:38:58.200Z,97789.02
2019-06-27T07:41:25.742Z,97785.10
2019-06-27T07:43:53.633Z,97789.52
2019-06-27T07:46:25.522Z,97779.59
2019-06-27T07:48:50.081Z,97783.84
2019-06-27T07:51:17.066Z,97776.81
2019-06-27T07:53:44.717Z,97775.05
2019-06-27T07:56:12.138Z,97778.75
2019-06-27T07:58:39.662Z,97778.22
2019-06-27T08:01:07.121Z,97773.41
2019-06-27T08:03:35.010Z,97774.22
2019-06-27T08:06:02.569Z,97776.91
2019-06-27T08:08:31.085Z,97773.36
2019-06-27T08:10:58.607Z,97775.65
2019-06-27T08:13:26.039Z,97772.14
2019-06-27T08:15:53.617Z,97770.95
2019-06-27T08:18:21.093Z,97770.03
2019-06-27T08:20:48.514Z,97767.55
2019-06-27T08:23:16.543Z,97769.83
2019-06-27T08:25:43.982Z,97768.18
2019-06-27T08:28:11.431Z,97769.72
2019-06-27T08:30:38.839Z,97763.52
2019-06-27T08:33:06.508Z,97762.41
2019-06-27T08:35:33.989Z,97763.09
2019-06-27T08:38:01.485Z,97765.08
2019-06-27T08:40:28.914Z,97766.61
2019-06-27T08:42:56.476Z,97763.16
2019-06-27T08:45:24.666Z,97755.84
2019-06-27T08:47:52.201Z,97761.02
2019-06-27T08:50:19.746Z,97756.71
2019-06-27T08:52:47.197Z,97760.23
2019-06-27T08:55:14.693Z,97755.55
2019-06-27T08:57:42.323Z,97756.92
2019-06-27T09:00:10.599Z,97755.06
2019-06-27T09:02:38.079Z,97751.20
2019-06-27T09:05:06.681Z,97754.09
2019-06-27T09:07:34.151Z,97755.27
2019-06-27T09:10:01.604Z,97748.78
2019-06-27T09:12:29.658Z,97750.61
2019-06-27T09:14:57.139Z,97746.59
2019-06-27T09:17:24.690Z,97744.59
2019-06-27T09:19:52.118Z,97746.09
2019-06-27T09:22:19.717Z,97742.88
2019-06-27T09:24:47.249Z,97739.48
2019-06-27T09:27:16.146Z,97744.75
2019-06-27T09:29:43.636Z,97742.94
2019-06-27T09:32:24.094Z,97749.95
2019-06-27T09:34:39.952Z,97745.73
2019-06-27T09:37:07.353Z,97742.53
2019-06-27T09:39:34.815Z,97745.00
2019-06-27T09:42:02.279Z,97737.95
2019-06-27T09:44:30.078Z,97732.18
2019-06-27T09:46:57.864Z,97738.77
2019-06-27T09:49:25.413Z,97735.80
2019-06-27T09:51:52.908Z,97736.53
2019-06-27T09:54:20.318Z,97734.59
2019-06-27T09:56:49.267Z,97728.72
2019-06-27T09:59:16.910Z,97739.53
2019-06-27T10:01:44.741Z,97729.63
2019-06-27T10:04:12.231Z,97726.23
2019-06-27T10:06:39.823Z,97725.46
2019-06-27T10:09:07.419Z,97726.08
2019-06-27T10:11:34.926Z,97725.02
2019-06-27T10:14:02.395Z,97719.97
2019-06-27T10:16:29.945Z,97713.83
2019-06-27T10:18:57.383Z,97709.34
2019-06-27T10:21:25.129Z,97710.85
2019-06-27T10:23:52.565Z,97704.55
2019-06-27T10:26:20.342Z,97705.53
2019-06-27T10:28:47.874Z,97702.05
2019-06-27T10:31:16.289Z,97706.30
2019-06-27T10:33:43.904Z,97694.22
2019-06-27T10:36:11.274Z,97693.53
2019-06-27T10:38:38.706Z,97689.84
2019-06-27T10:41:06.564Z,97694.08
2019-06-27T10:43:33.983Z,97694.27
2019-06-27T10:46:02.279Z,97691.14
2019-06-27T10:48:29.691Z,97687.33
2019-06-27T10:50:57.385Z,97684.33
2019-06-27T10:53:24.868Z,97682.06
2019-06-27T10:55:52.736Z,97674.11
2019-06-27T10:58:20.210Z,97671.13
2019-06-27T11:00:47.885Z,97666.05
2019-06-27T11:03:16.519Z,97662.08
2019-06-27T11:05:43.051Z,97660.30
2019-06-27T11:08:11.220Z,97659.35
2019-06-27T11:10:38.699Z,97654.09
2019-06-27T11:13:06.149Z,97651.69
2019-06-27T11:15:33.726Z,97653.47
2019-06-27T11:18:01.660Z,97652.00
2019-06-27T11:20:29.233Z,97648.72
2019-06-27T11:22:56.878Z,97644.64
2019-06-27T11:25:24.450Z,97642.31
2019-06-27T11:27:51.872Z,97634.24
2019-06-27T11:30:19.575Z,97633.80
2019-06-27T11:32:47.154Z,97627.27
2019-06-27T11:35:15.148Z,97626.73
2019-06-27T11:37:42.814Z,97622.28
2019-06-27T11:40:12.303Z,97620.62
2019-06-27T11:42:37.807Z,97621.31
2019-06-27T11:45:05.270Z,97614.19
2019-06-27T11:47:34.523Z,97612.44
2019-06-27T11:50:00.882Z,97612.00
2019-06-27T11:52:28.401Z,97613.13
2019-06-27T11:54:55.839Z,97606.09
2019-06-27T11:57:23.397Z,97606.86
2019-06-27T11:59:51.103Z,97602.72
2019-06-27T12:02:18.665Z,97604.05
2019-06-27T12:04:46.380Z,97600.51
2019-06-27T12:07:13.800Z,97596.09
2019-06-27T12:09:41.386Z,97594.04
2019-06-27T12:12:08.834Z,97592.59
2019-06-27T12:14:36.271Z,97590.37
2019-06-27T12:17:03.939Z,97586.38
2019-06-27T12:19:31.437Z,97586.39
2019-06-27T12:21:58.856Z,97583.05
2019-06-27T12:24:27.161Z,97581.01
2019-06-27T12:26:54.767Z,97576.59
2019-06-27T12:29:22.351Z,97575.51
2019-06-27T12:31:51.776Z,97571.10
2019-06-27T12:34:17.421Z,97564.61
2019-06-27T12:36:44.899Z,97567.60
2019-06-27T12:39:12.484Z,97567.29
2019-06-27T12:41:40.074Z,97563.33
2019-06-27T12:44:07.453Z,97564.21
2019-06-27T12:46:34.915Z,97560.31
2019-06-27T12:49:02.523Z,97557.59
2019-06-27T12:51:29.969Z,97553.36
2019-06-27T12:53:57.630Z,97545.24
2019-06-27T12:56:25.184Z,97547.73
2019-06-27T12:58:53.005Z,97549.09
2019-06-27T13:01:20.467Z,97548.44
2019-06-27T13:03:47.982Z,97541.64
2019-06-27T13:06:15.427Z,97535.91
2019-06-27T13:08:42.930Z,97538.59
2019-06-27T13:11:10.452Z,97529.86
2019-06-27T13:13:38.055Z,97532.55
2019-06-27T13:16:05.489Z,97535.80
2019-06-27T13:18:33.313Z,97525.22
2019-06-27T13:21:00.734Z,97523.08
2019-06-27T13:23:28.275Z,97514.03
2019-06-27T13:25:55.859Z,97521.83
2019-06-27T13:28:24.173Z,97517.95
2019-06-27T13:30:51.663Z,97516.34
2019-06-27T13:33:19.220Z,97507.04
2019-06-27T13:35:49.113Z,97499.87
2019-06-27T13:38:14.486Z,97502.80
2019-06-27T13:40:41.979Z,97501.03
2019-06-27T13:43:09.481Z,97495.64
2019-06-27T13:45:36.943Z,97490.35
2019-06-27T13:48:04.507Z,97484.28
2019-06-27T13:50:31.915Z,97483.76
2019-06-27T13:52:59.578Z,97477.48
2019-06-27T13:55:27.049Z,97467.64
2019-06-27T13:57:57.519Z,97470.26
2019-06-27T14:00:43.152Z,97470.06
2019-06-27T14:03:10.603Z,97469.18
2019-06-27T14:05:38.034Z,97460.77
2019-06-27T14:08:05.436Z,97458.00
2019-06-27T14:10:32.915Z,97459.25
2019-06-27T14:13:00.635Z,97457.98
2019-06-27T14:15:28.165Z,97456.71
2019-06-27T14:17:55.742Z,97454.63
2019-06-27T14:20:24.031Z,97450.57
2019-06-27T14:22:51.443Z,97451.34
2019-06-27T14:25:18.888Z,97450.28
2019-06-27T14:27:46.311Z,97446.84
2019-06-27T14:30:13.722Z,97447.92
2019-06-27T14:32:41.320Z,97439.66
2019-06-27T14:35:15.146Z,97441.27
2019-06-27T14:37:36.666Z,97434.28
2019-06-27T14:40:05.921Z,97434.60
2019-06-27T14:42:34.219Z,97434.78
2019-06-27T14:45:01.765Z,97429.32
2019-06-27T14:47:29.339Z,97428.05
2019-06-27T14:49:56.774Z,97425.34
2019-06-27T14:52:24.677Z,97416.19
2019-06-27T14:54:52.126Z,97419.58
2019-06-27T14:57:20.040Z,97410.05
2019-06-27T14:59:47.439Z,97412.09
2019-06-27T15:02:15.528Z,97407.56
2019-06-27T15:04:43.007Z,97404.44
2019-06-27T15:07:11.269Z,97403.90
2019-06-27T15:09:38.803Z,97404.45
2019-06-27T15:12:07.045Z,97404.02
2019-06-27T15:14:34.924Z,97402.14
2019-06-27T15:17:02.420Z,97397.54
2019-06-27T15:19:29.879Z,97394.57
2019-06-27T15:21:57.474Z,97399.21
2019-06-27T15:24:25.013Z,97395.05
2019-06-27T15:26:52.784Z,97391.44
2019-06-27T15:29:20.316Z,97382.40
2019-06-27T15:31:48.079Z,97384.09
2019-06-27T15:34:15.503Z,97375.77
2019-06-27T15:36:44.187Z,97381.88
2019-06-27T15:39:12.163Z,97378.09
2019-06-27T15:41:39.336Z,97376.52
2019-06-27T15:44:06.751Z,97381.29
2019-06-27T15:46:34.209Z,97379.41
2019-06-27T15:49:01.643Z,97383.27
2019-06-27T15:51:29.388Z,97376.89
2019-06-27T15:53:56.903Z,97372.63
2019-06-27T15:56:25.162Z,97363.58
2019-06-27T15:58:52.712Z,97364.98
2019-06-27T16:01:20.299Z,97364.98
2019-06-27T16:03:47.786Z,97356.63
2019-06-27T16:06:15.333Z,97363.45
2019-06-27T16:08:42.686Z,97363.83
2019-06-27T16:11:10.328Z,97362.69
2019-06-27T16:13:37.759Z,97361.50
2019-06-27T16:16:05.200Z,97371.53
2019-06-27T16:18:32.612Z,97367.50
2019-06-27T16:21:00.896Z,97371.49
2019-06-27T16:23:28.323Z,97367.77
2019-06-27T16:25:56.107Z,97367.56
2019-06-27T16:28:26.785Z,97358.98
2019-06-27T16:30:51.289Z,97356.34
2019-06-27T16:33:18.844Z,97355.91
2019-06-27T16:35:46.524Z,97351.34
2019-06-27T16:38:13.987Z,97356.11
2019-06-27T16:40:41.612Z,97360.08
2019-06-27T16:43:09.247Z,97364.75
2019-06-27T16:45:40.299Z,97369.19
2019-06-27T16:48:04.755Z,97359.72
2019-06-27T16:50:32.299Z,97359.07
2019-06-27T16:52:59.772Z,97356.35
2019-06-27T16:55:27.379Z,97353.45
2019-06-27T16:57:54.841Z,97355.87
2019-06-27T17:00:22.515Z,97354.52
2019-06-27T17:02:50.073Z,97363.37
2019-06-27T17:05:18.257Z,97360.08
2019-06-27T17:07:45.911Z,97354.86
2019-06-27T17:10:14.191Z,97360.55
2019-06-27T17:12:41.774Z,97352.61
2019-06-27T17:15:09.376Z,97359.20
2019-06-27T17:17:36.871Z,97343.39
2019-06-27T17:20:06.317Z,97345.46
2019-06-27T17:22:33.922Z,97348.78
2019-06-27T17:25:01.485Z,97347.55
2019-06-27T17:27:28.965Z,97352.14
2019-06-27T17:29:56.468Z,97357.07
2019-06-27T17:32:24.226Z,97353.45
2019-06-27T17:34:52.027Z,97351.58
2019-06-27T17:37:19.478Z,97349.63
2019-06-27T17:39:46.952Z,97350.53
2019-06-27T17:42:14.652Z,97346.53
2019-06-27T17:44:42.662Z,97348.11
2019-06-27T17:47:10.995Z,97344.83
2019-06-27T17:49:38.392Z,97347.25
2019-06-27T17:52:05.845Z,97344.92
2019-06-27T17:54:33.719Z,97343.77
2019-06-27T17:57:01.170Z,97340.90
2019-06-27T17:59:28.622Z,97338.75
2019-06-27T18:01:56.114Z,97339.31
2019-06-27T18:04:23.547Z,97337.09
2019-06-27T18:06:51.813Z,97332.31
2019-06-27T18:09:19.269Z,97334.41
2019-06-27T18:11:46.702Z,97335.92
2019-06-27T18:14:14.376Z,97332.27
2019-06-27T18:16:41.833Z,97341.48
2019-06-27T18:19:09.562Z,97343.36
2019-06-27T18:21:37.011Z,97335.81
2019-06-27T18:24:04.490Z,97337.92
2019-06-27T18:26:32.093Z,97343.97
2019-06-27T18:29:00.055Z,97339.06
2019-06-27T18:31:27.495Z,97347.00
2019-06-27T18:33:55.263Z,97341.22
2019-06-27T18:36:22.737Z,97344.72
2019-06-27T18:38:50.522Z,97346.08
2019-06-27T18:41:17.940Z,97352.70
2019-06-27T18:43:45.546Z,97349.04
2019-06-27T18:46:13.046Z,97357.34
2019-06-27T18:48:40.648Z,97354.98
2019-06-27T18:51:08.136Z,97360.16
2019-06-27T18:53:35.906Z,97357.09
2019-06-27T18:56:03.341Z,97353.61
2019-06-27T18:58:31.503Z,97359.97
2019-06-27T19:00:58.952Z,97356.81
2019-06-27T19:03:26.579Z,97356.41
2019-06-27T19:05:54.023Z,97362.57
2019-06-27T19:08:21.422Z,97358.59
2019-06-27T19:10:48.944Z,97359.29
2019-06-27T19:13:16.434Z,97359.05
2019-06-27T19:15:43.864Z,97359.17
2019-06-27T19:18:16.801Z,97354.94
2019-06-27T19:20:45.008Z,97353.94
2019-06-27T19:23:26.894Z,97361.55
2019-06-27T19:25:54.353Z,97365.96
2019-06-27T19:28:21.839Z,97369.55
2019-06-27T19:30:49.379Z,97370.95
2019-06-27T19:33:16.835Z,97371.98
2019-06-27T19:35:44.247Z,97376.19
2019-06-27T19:38:11.689Z,97374.50
2019-06-27T19:40:39.131Z,97378.28
2019-06-27T19:43:06.852Z,97383.01
2019-06-27T19:45:34.298Z,97385.77
2019-06-27T19:48:01.958Z,97391.70
2019-06-27T19:50:29.416Z,97395.51
2019-06-27T19:52:56.830Z,97388.47
2019-06-27T19:55:24.252Z,97398.33
2019-06-27T19:57:52.856Z,97402.54
2019-06-27T20:00:20.400Z,97403.86
2019-06-27T20:02:48.120Z,97400.67
2019-06-27T20:05:15.547Z,97408.05
2019-06-27T20:07:43.524Z,97414.01
2019-06-27T20:10:11.971Z,97408.96
2019-06-27T20:12:38.782Z,97418.38
2019-06-27T20:15:06.540Z,97420.19
2019-06-27T20:17:34.133Z,97417.19
2019-06-27T20:20:01.538Z,97417.80
2019-06-27T20:22:29.187Z,97422.53
2019-06-27T20:24:57.089Z,97423.77
2019-06-27T20:27:24.723Z,97432.28
2019-06-27T20:29:52.138Z,97433.25
2019-06-27T20:32:19.592Z,97429.30
2019-06-27T20:34:46.991Z,97428.63
2019-06-27T20:37:14.518Z,97435.89
2019-06-27T20:39:41.934Z,97435.08
2019-06-27T20:42:09.920Z,97432.77
2019-06-27T20:44:37.393Z,97438.42
2019-06-27T20:47:04.801Z,97437.83
2019-06-27T20:49:32.246Z,97441.15
2019-06-27T20:52:00.151Z,97437.52
2019-06-27T20:54:27.607Z,97431.28
2019-06-27T20:56:55.270Z,97438.05
2019-06-27T20:59:22.678Z,97429.41
2019-06-27T21:01:50.221Z,97438.36
2019-06-27T21:04:17.636Z,97437.31
2019-06-27T21:06:45.099Z,97443.88
2019-06-27T21:09:12.506Z,97440.76
2019-06-27T21:11:40.487Z,97438.16
2019-06-27T21:14:07.915Z,97444.88
2019-06-27T21:16:35.702Z,97449.09
2019-06-27T21:19:03.199Z,97444.88
2019-06-27T21:21:31.173Z,97455.50
2019-06-27T21:23:58.603Z,97454.87
2019-06-27T21:26:26.023Z,97452.18
2019-06-27T21:28:53.446Z,97452.92
2019-06-27T21:31:20.978Z,97458.00
2019-06-27T21:33:48.614Z,97452.50
2019-06-27T21:36:16.247Z,97460.49
2019-06-27T21:38:43.695Z,97454.55
2019-06-27T21:41:11.123Z,97462.30
2019-06-27T21:43:38.079Z,97459.72
2019-06-27T21:46:05.053Z,97460.72
2019-06-27T21:48:32.042Z,97464.77
2019-06-27T21:50:59.117Z,97473.09
2019-06-27T21:53:26.108Z,97465.28
2019-06-27T21:55:53.623Z,97474.48
2019-06-27T21:58:20.590Z,97468.05
2019-06-27T22:00:47.598Z,97469.39
2019-06-27T22:03:14.584Z,97472.09
2019-06-27T22:05:41.618Z,97471.66
2019-06-27T22:08:08.607Z,97474.98
2019-06-27T22:10:35.560Z,97471.98
2019-06-27T22:13:02.575Z,97466.34
2019-06-27T22:15:29.583Z,97464.47
2019-06-27T22:17:56.696Z,97471.56
2019-06-27T22:20:23.687Z,97471.05
2019-06-27T22:22:50.739Z,97469.36
2019-06-27T22:25:17.717Z,97472.47
2019-06-27T22:27:45.601Z,97468.50
2019-06-27T22:30:12.701Z,97471.31
2019-06-27T22:32:39.637Z,97469.02
2019-06-27T22:35:06.662Z,97467.11
2019-06-27T22:37:33.263Z,97467.00
2019-06-27T22:40:06.049Z,97463.33
2019-06-27T22:42:39.126Z,97464.91
2019-06-27T22:45:11.743Z,97468.95
2019-06-27T22:47:44.386Z,97467.41
2019-06-27T22:50:17.063Z,97466.36
2019-06-27T22:55:37.880Z,97473.59
2019-06-27T22:58:04.908Z,97466.52
2019-06-27T23:00:31.987Z,97468.88
2019-06-27T23:02:58.959Z,97475.42
2019-06-27T23:05:26.004Z,97470.32
2019-06-27T23:07:52.954Z,97469.49
2019-06-27T23:10:19.947Z,97473.94
2019-06-27T23:12:46.898Z,97470.50
2019-06-27T23:15:13.873Z,97465.33
2019-06-27T23:17:41.912Z,97467.49
2019-06-27T23:20:09.707Z,97470.86
2019-06-27T23:22:36.656Z,97470.91
2019-06-27T23:25:03.612Z,97466.82
2019-06-27T23:27:30.628Z,97463.17
2019-06-27T23:29:57.761Z,97471.20
2019-06-27T23:32:24.693Z,97461.94
2019-06-27T23:34:51.711Z,97467.86
2019-06-27T23:37:18.706Z,97464.92
2019-06-27T23:39:45.677Z,97463.70
2019-06-27T23:42:12.809Z,97464.74
2019-06-27T23:44:39.754Z,97469.50
2019-06-27T23:47:07.430Z,97462.08
2019-06-27T23:49:34.782Z,97462.02
2019-06-27T23:52:01.777Z,97466.63
2019-06-27T23:54:28.697Z,97467.28
2019-06-27T23:56:55.695Z,97467.09
2019-06-27T23:59:22.675Z,97462.53
